createdAt,value
2022-09-01T00:00:10.560Z,11.98
2022-09-01T00:02:37.877Z,13.35
2022-09-01T00:05:06.806Z,15.23
2022-09-01T00:07:35.094Z,13.63
2022-09-01T00:10:06.521Z,16.08
2022-09-01T00:12:34.592Z,16.67
2022-09-01T00:15:02.222Z,14.03
2022-09-01T00:17:30.560Z,11.40
2022-09-01T00:19:57.706Z,10.93
2022-09-01T00:22:24.951Z,11.40
2022-09-01T00:24:52.152Z,10.65
2022-09-01T00:27:20.238Z,12.80
2022-09-01T00:29:49.008Z,12.43
2022-09-01T00:32:16.241Z,11.50
2022-09-01T00:34:43.373Z,15.15
2022-09-01T00:37:10.646Z,15.35
2022-09-01T00:39:37.783Z,16.58
2022-09-01T00:42:05.331Z,13.27
2022-09-01T00:44:32.831Z,15.43
2022-09-01T00:47:00.224Z,13.13
2022-09-01T00:49:42.548Z,13.30
2022-09-01T00:52:20.301Z,11.55
2022-09-01T00:54:57.684Z,15.32
2022-09-01T00:57:25.855Z,15.18
2022-09-01T01:00:13.356Z,13.98
2022-09-01T01:02:41.700Z,14.05
2022-09-01T01:05:11.897Z,9.23
2022-09-01T01:07:47.744Z,13.02
2022-09-01T01:10:18.526Z,13.52
2022-09-01T01:12:46.448Z,14.80
2022-09-01T01:15:14.977Z,14.65
2022-09-01T01:17:42.494Z,16.05
2022-09-01T01:20:33.338Z,14.15
2022-09-01T01:23:30.360Z,13.95
2022-09-01T01:25:59.982Z,9.63
2022-09-01T01:28:35.053Z,10.40
2022-09-01T01:31:15.576Z,12.68
2022-09-01T01:33:47.056Z,9.60
2022-09-01T01:36:20.982Z,13.20
2022-09-01T01:38:50.113Z,10.02
2022-09-01T01:41:21.324Z,13.48
2022-09-01T01:43:50.385Z,11.50
2022-09-01T01:46:20.727Z,14.23
2022-09-01T01:48:51.740Z,14.98
2022-09-01T01:51:26.168Z,15.27
2022-09-01T01:53:55.178Z,11.10
2022-09-01T01:56:24.987Z,17.30
2022-09-01T01:58:57.172Z,12.45
2022-09-01T02:01:29.416Z,13.77
2022-09-01T02:04:00.432Z,12.73
2022-09-01T02:06:31.713Z,11.05
2022-09-01T02:09:02.517Z,14.00
2022-09-01T02:11:37.188Z,16.92
2022-09-01T02:14:07.425Z,16.98
2022-09-01T02:16:36.273Z,12.70
2022-09-01T02:19:09.326Z,16.48
2022-09-01T02:21:36.672Z,14.63
2022-09-01T02:24:07.819Z,15.27
2022-09-01T02:26:40.000Z,16.67
2022-09-01T02:29:17.329Z,11.15
2022-09-01T02:31:51.408Z,11.93
2022-09-01T02:34:20.440Z,12.27
2022-09-01T02:36:52.309Z,10.75
2022-09-01T02:39:34.272Z,14.10
2022-09-01T02:42:02.250Z,11.02
2022-09-01T02:44:30.390Z,10.07
2022-09-01T02:47:01.101Z,10.57
2022-09-01T02:49:29.377Z,11.13
2022-09-01T02:52:00.649Z,9.93
2022-09-01T02:54:31.927Z,12.82
2022-09-01T02:56:59.651Z,8.23
2022-09-01T02:59:29.805Z,10.75
2022-09-01T03:02:00.792Z,8.65
2022-09-01T03:04:29.223Z,10.45
2022-09-01T03:06:58.098Z,9.10
2022-09-01T03:09:25.419Z,10.57
2022-09-01T03:11:54.545Z,10.55
2022-09-01T03:14:25.329Z,8.60
2022-09-01T03:16:52.713Z,9.68
2022-09-01T03:19:20.358Z,10.18
2022-09-01T03:21:48.300Z,10.23
2022-09-01T03:24:19.479Z,14.25
2022-09-01T03:26:50.994Z,11.02
2022-09-01T03:29:19.809Z,14.20
2022-09-01T03:31:47.794Z,11.70
2022-09-01T03:34:17.952Z,12.87
2022-09-01T03:36:50.734Z,11.02
2022-09-01T03:39:29.102Z,8.32
2022-09-01T03:41:57.688Z,11.45
2022-09-01T03:44:24.890Z,9.90
2022-09-01T03:46:52.393Z,11.10
2022-09-01T03:49:24.385Z,10.43
2022-09-01T03:51:53.293Z,10.10
2022-09-01T03:54:29.602Z,14.35
2022-09-01T03:56:59.245Z,14.75
2022-09-01T03:59:27.874Z,11.00
2022-09-01T04:01:56.187Z,11.77
2022-09-01T04:04:24.037Z,13.93
2022-09-01T04:06:51.626Z,15.55
2022-09-01T04:09:20.307Z,13.70
2022-09-01T04:11:47.873Z,11.95
2022-09-01T04:17:04.071Z,11.48
2022-09-01T04:19:38.585Z,9.18
2022-09-01T04:22:07.376Z,9.48
2022-09-01T04:24:45.244Z,9.52
2022-09-01T04:27:14.009Z,8.20
2022-09-01T04:29:41.960Z,8.82
2022-09-01T04:32:12.132Z,7.10
2022-09-01T04:34:41.574Z,8.10
2022-09-01T04:37:21.124Z,7.45
2022-09-01T04:39:56.468Z,8.18
2022-09-01T04:42:31.765Z,7.65
2022-09-01T04:45:10.109Z,6.53
2022-09-01T04:47:41.660Z,8.10
2022-09-01T04:50:16.517Z,7.18
2022-09-01T04:52:55.351Z,9.27
2022-09-01T04:55:31.060Z,8.95
2022-09-01T04:58:01.181Z,8.30
2022-09-01T05:00:32.046Z,6.53
2022-09-01T05:03:03.877Z,7.45
2022-09-01T05:05:49.208Z,7.43
2022-09-01T05:08:23.642Z,7.37
2022-09-01T05:10:56.055Z,8.30
2022-09-01T05:13:46.031Z,7.88
2022-09-01T05:16:22.727Z,6.43
2022-09-01T05:18:56.307Z,6.38
2022-09-01T05:21:26.057Z,6.40
2022-09-01T05:23:53.679Z,6.03
2022-09-01T05:26:27.119Z,5.45
2022-09-01T05:28:59.496Z,6.50
2022-09-01T05:31:34.147Z,5.68
2022-09-01T05:34:02.666Z,6.18
2022-09-01T05:36:32.869Z,6.03
2022-09-01T05:39:01.592Z,5.75
2022-09-01T05:41:30.123Z,5.65
2022-09-01T05:44:00.664Z,5.97
2022-09-01T05:46:29.256Z,5.63
2022-09-01T05:48:58.166Z,6.22
2022-09-01T05:51:50.696Z,6.72
2022-09-01T05:54:24.743Z,6.05
2022-09-01T05:56:52.924Z,6.00
2022-09-01T05:59:24.037Z,5.65
2022-09-01T06:01:54.609Z,4.13
2022-09-01T06:04:27.237Z,5.25
2022-09-01T06:07:06.027Z,5.03
2022-09-01T08:29:10.906Z,7.03
2022-09-01T08:31:42.274Z,7.45
2022-09-01T08:34:12.078Z,8.48
2022-09-01T08:36:39.578Z,7.45
2022-09-01T08:39:07.305Z,7.90
2022-09-01T08:42:13.209Z,8.48
2022-09-01T08:45:07.033Z,7.50
2022-09-01T08:47:49.152Z,6.85
2022-09-01T08:50:23.469Z,7.18
2022-09-01T08:55:44.907Z,7.47
2022-09-01T08:58:17.439Z,7.32
2022-09-01T09:01:41.766Z,6.45
2022-09-01T09:04:21.450Z,6.10
2022-09-01T09:07:04.966Z,7.00
2022-09-01T09:09:54.221Z,6.60
2022-09-01T09:13:18.106Z,6.05
2022-09-01T09:16:42.689Z,6.60
2022-09-01T09:19:29.976Z,6.75
2022-09-01T09:22:00.684Z,6.40
2022-09-01T09:24:46.817Z,5.93
2022-09-01T09:27:43.980Z,5.53
2022-09-01T09:30:19.465Z,6.10
2022-09-01T09:35:54.437Z,6.72
2022-09-01T09:38:29.696Z,6.70
2022-09-01T09:43:59.474Z,6.05
2022-09-01T09:46:38.382Z,6.07
2022-09-01T09:49:44.262Z,6.55
2022-09-01T09:52:18.189Z,6.22
2022-09-01T09:55:22.199Z,6.32
2022-09-01T09:57:53.157Z,6.43
2022-09-01T10:00:33.383Z,6.45
2022-09-01T10:03:10.032Z,5.57
2022-09-01T10:05:51.245Z,5.90
2022-09-01T10:08:29.728Z,5.65
2022-09-01T10:10:58.481Z,4.57
2022-09-01T10:13:28.975Z,4.38
2022-09-01T10:16:05.876Z,5.63
2022-09-01T10:18:44.370Z,5.80
2022-09-01T10:21:39.724Z,5.88
2022-09-01T10:24:38.797Z,5.70
2022-09-01T10:27:24.916Z,5.88
2022-09-01T10:30:12.082Z,5.45
2022-09-01T10:32:56.889Z,6.30
2022-09-01T10:35:32.280Z,5.53
2022-09-01T10:38:12.015Z,6.35
2022-09-01T10:41:06.447Z,5.00
2022-09-01T10:43:47.453Z,5.75
2022-09-01T10:46:40.778Z,6.70
2022-09-01T10:49:46.212Z,5.18
2022-09-01T10:52:43.235Z,5.15
2022-09-01T10:55:46.219Z,5.60
2022-09-01T11:01:49.506Z,5.47
2022-09-01T11:04:41.421Z,5.85
2022-09-01T11:07:38.812Z,5.45
2022-09-01T11:10:35.367Z,4.70
2022-09-01T11:13:33.222Z,4.88
2022-09-01T11:16:49.203Z,5.85
2022-09-01T11:19:45.844Z,5.68
2022-09-01T11:23:05.566Z,5.30
2022-09-01T11:25:44.485Z,4.13
2022-09-01T11:28:14.692Z,5.60
2022-09-01T11:30:59.852Z,5.15
2022-09-01T11:34:09.390Z,5.15
2022-09-01T11:37:00.560Z,4.35
2022-09-01T11:39:32.297Z,3.80
2022-09-01T11:42:13.274Z,4.40
2022-09-01T11:45:11.596Z,3.55
2022-09-01T11:47:49.118Z,4.97
2022-09-01T11:50:16.072Z,5.05
2022-09-01T11:53:04.975Z,3.92
2022-09-01T11:55:34.408Z,5.88
2022-09-01T11:58:02.796Z,4.82
2022-09-01T12:03:29.198Z,3.90
2022-09-01T12:06:03.536Z,4.43
2022-09-01T12:08:41.996Z,4.07
2022-09-01T12:11:23.102Z,4.20
2022-09-01T12:14:06.626Z,4.00
2022-09-01T12:16:41.658Z,3.17
2022-09-01T12:19:28.448Z,2.97
2022-09-01T12:22:14.705Z,3.90
2022-09-01T12:24:51.111Z,3.90
2022-09-01T12:27:19.999Z,3.63
2022-09-01T12:29:48.489Z,4.05
2022-09-01T12:32:16.759Z,4.03
2022-09-01T12:37:24.260Z,3.75
2022-09-01T12:39:56.645Z,4.47
2022-09-01T12:42:25.280Z,4.05
2022-09-01T12:45:09.522Z,4.43
2022-09-01T12:47:36.968Z,3.88
2022-09-01T12:50:08.349Z,4.47
2022-09-01T12:52:55.942Z,4.32
2022-09-01T12:55:49.029Z,4.60
2022-09-01T12:58:25.142Z,4.10
2022-09-01T13:01:11.941Z,4.85
2022-09-01T13:04:25.942Z,4.63
2022-09-01T13:06:56.642Z,4.22
2022-09-01T13:09:24.783Z,4.57
2022-09-01T13:12:08.126Z,3.53
2022-09-01T13:14:35.540Z,4.72
2022-09-01T13:17:02.741Z,4.28
2022-09-01T13:19:30.393Z,4.10
2022-09-01T13:21:58.312Z,4.70
2022-09-01T13:24:28.678Z,4.65
2022-09-01T13:29:45.896Z,4.10
2022-09-01T13:32:18.941Z,4.32
2022-09-01T13:34:50.716Z,5.35
2022-09-01T13:37:20.873Z,4.28
2022-09-01T13:39:48.149Z,5.07
2022-09-01T13:42:16.744Z,6.35
2022-09-01T13:50:10.588Z,5.65
2022-09-01T13:52:42.720Z,5.97
2022-09-01T13:55:13.414Z,5.40
2022-09-01T13:57:40.859Z,5.75
2022-09-01T14:00:15.029Z,4.75
2022-09-01T14:02:49.594Z,4.53
2022-09-01T14:05:22.673Z,6.32
2022-09-01T14:07:50.657Z,5.88
2022-09-01T14:10:19.430Z,5.90
2022-09-01T14:15:18.462Z,6.63
2022-09-01T14:17:56.003Z,4.53
2022-09-01T14:20:38.916Z,8.05
2022-09-01T14:23:08.296Z,6.65
2022-09-01T14:25:37.163Z,6.78
2022-09-01T14:28:05.214Z,7.82
2022-09-01T14:30:33.471Z,8.10
2022-09-01T14:33:01.505Z,5.00
2022-09-01T14:35:33.031Z,5.47
2022-09-01T14:38:02.164Z,4.60
2022-09-01T14:40:29.465Z,6.90
2022-09-01T14:42:56.656Z,9.13
2022-09-01T14:45:28.326Z,10.27
2022-09-01T14:48:00.091Z,12.10
2022-09-01T14:50:31.449Z,12.38
2022-09-01T14:53:00.652Z,8.63
2022-09-01T14:55:31.970Z,10.32
2022-09-01T14:58:00.284Z,11.25
2022-09-01T15:00:29.491Z,10.13
2022-09-01T15:02:57.976Z,8.82
2022-09-01T15:05:25.572Z,9.80
2022-09-01T15:07:53.701Z,8.65
2022-09-01T15:10:24.668Z,11.02
2022-09-01T15:12:55.466Z,8.75
2022-09-01T15:15:23.749Z,10.52
2022-09-01T15:17:50.974Z,9.95
2022-09-01T15:20:37.509Z,8.93
2022-09-01T15:23:06.412Z,8.73
2022-09-01T15:25:34.353Z,9.38
2022-09-01T15:28:02.043Z,9.60
2022-09-01T15:30:29.293Z,9.30
2022-09-01T15:32:56.470Z,9.27
2022-09-01T15:35:24.158Z,8.77
2022-09-01T15:37:52.054Z,9.88
2022-09-01T15:40:20.098Z,8.25
2022-09-01T15:42:47.361Z,7.95
2022-09-01T15:45:19.019Z,10.20
2022-09-01T15:47:49.555Z,8.10
2022-09-01T15:50:23.427Z,11.43
2022-09-01T15:53:00.802Z,8.65
2022-09-01T15:55:42.466Z,9.65
2022-09-01T15:58:12.974Z,9.60
2022-09-01T16:00:42.219Z,11.77
2022-09-01T16:03:10.138Z,10.32
2022-09-01T16:05:39.247Z,9.70
2022-09-01T16:08:08.962Z,10.20
2022-09-01T16:10:39.331Z,9.40
2022-09-01T16:13:07.468Z,10.50
2022-09-01T16:15:41.607Z,15.15
2022-09-01T16:18:26.729Z,13.10
2022-09-01T16:21:43.912Z,13.82
2022-09-01T16:24:13.432Z,11.18
2022-09-01T16:26:45.039Z,12.32
2022-09-01T16:29:24.379Z,12.60
2022-09-01T16:31:55.689Z,11.00
2022-09-01T16:34:27.689Z,9.82
2022-09-01T16:37:35.311Z,11.27
2022-09-01T16:40:41.486Z,13.90
2022-09-01T16:43:23.652Z,13.75
2022-09-01T16:46:23.278Z,19.42
2022-09-01T16:49:11.323Z,16.63
2022-09-01T16:52:06.676Z,18.67
2022-09-01T16:54:48.719Z,11.52
2022-09-01T16:57:47.367Z,17.20
2022-09-01T17:00:18.031Z,14.75
2022-09-01T17:03:17.082Z,11.65
2022-09-01T17:06:05.314Z,10.52
2022-09-01T17:09:02.043Z,9.63
2022-09-01T17:12:22.836Z,9.52
2022-09-01T17:15:04.526Z,11.35
2022-09-01T17:17:44.920Z,9.77
2022-09-01T17:20:13.792Z,9.30
2022-09-01T17:22:54.394Z,9.80
2022-09-01T17:25:48.134Z,9.48
2022-09-01T17:28:27.953Z,12.20
2022-09-01T17:31:25.422Z,11.30
2022-09-01T17:34:08.834Z,10.43
2022-09-01T17:37:17.958Z,9.43
2022-09-01T17:40:23.367Z,14.05
2022-09-01T17:43:14.850Z,11.00
2022-09-01T17:46:15.181Z,13.55
2022-09-01T17:49:11.676Z,11.77
2022-09-01T17:52:10.073Z,11.05
2022-09-01T17:54:56.506Z,14.88
2022-09-01T17:57:54.417Z,10.70
2022-09-01T18:00:26.905Z,10.90
2022-09-01T18:03:31.663Z,9.93
2022-09-01T18:06:03.869Z,9.45
2022-09-01T18:08:48.215Z,10.95
2022-09-01T18:11:34.272Z,11.30
2022-09-01T18:14:15.944Z,10.32
2022-09-01T18:17:30.924Z,11.63
2022-09-01T18:20:30.553Z,9.75
2022-09-01T18:23:04.853Z,12.68
2022-09-01T18:25:43.028Z,12.52
2022-09-01T18:28:10.887Z,11.80
2022-09-01T18:31:37.546Z,9.80
2022-09-01T18:34:29.444Z,9.13
2022-09-01T18:37:20.907Z,10.45
2022-09-01T18:40:21.964Z,12.95
2022-09-01T18:44:03.535Z,11.90
2022-09-01T18:47:00.845Z,11.45
2022-09-01T18:50:00.348Z,10.45
2022-09-01T18:52:52.716Z,12.75
2022-09-01T18:56:09.587Z,11.00
2022-09-01T18:59:13.031Z,13.07
2022-09-01T19:02:14.715Z,10.68
2022-09-01T19:04:45.558Z,10.93
2022-09-01T19:08:06.694Z,10.50
2022-09-01T19:11:00.951Z,11.80
2022-09-01T19:13:40.290Z,11.18
2022-09-01T19:16:44.744Z,15.07
2022-09-01T19:19:37.918Z,10.25
2022-09-01T19:22:05.775Z,11.77
2022-09-01T19:24:43.150Z,12.30
2022-09-01T19:27:21.162Z,13.18
2022-09-01T19:29:56.138Z,14.27
2022-09-01T19:32:29.661Z,12.32
2022-09-01T19:35:13.843Z,13.95
2022-09-01T19:37:43.823Z,16.70
2022-09-01T19:40:12.635Z,15.55
2022-09-01T19:42:50.868Z,13.52
2022-09-01T19:45:58.790Z,12.75
2022-09-01T19:48:47.122Z,12.93
2022-09-01T19:51:39.962Z,16.33
2022-09-01T19:54:39.366Z,16.75
2022-09-01T19:57:17.971Z,13.88
2022-09-01T19:59:47.875Z,15.25
2022-09-01T20:03:03.064Z,9.43
2022-09-01T20:09:20.000Z,10.02
2022-09-01T20:12:16.444Z,10.10
2022-09-01T20:14:51.446Z,11.25
2022-09-01T20:17:45.995Z,11.70
2022-09-01T20:20:20.573Z,13.60
2022-09-01T20:23:22.907Z,13.95
2022-09-01T20:26:03.289Z,10.02
2022-09-01T20:29:09.309Z,11.80
2022-09-01T20:31:49.616Z,15.10
2022-09-01T20:34:47.985Z,12.90
2022-09-01T20:37:21.947Z,15.10
2022-09-01T20:40:13.004Z,16.20
2022-09-01T20:43:08.150Z,15.38
2022-09-01T20:45:36.076Z,11.30
2022-09-01T20:48:16.895Z,17.48
2022-09-01T20:51:07.523Z,16.42
2022-09-01T20:53:56.249Z,17.55
2022-09-01T20:56:50.223Z,16.08
2022-09-01T21:00:03.472Z,11.25
2022-09-01T21:02:48.550Z,14.40
2022-09-01T21:05:45.383Z,15.32
2022-09-01T21:08:39.763Z,14.85
2022-09-01T21:11:47.308Z,13.18
2022-09-01T21:14:31.536Z,13.73
2022-09-01T21:17:21.689Z,16.17
2022-09-01T21:20:15.173Z,13.32
2022-09-01T21:22:42.655Z,17.90
2022-09-01T21:25:11.298Z,13.90
2022-09-01T21:28:09.545Z,14.63
2022-09-01T21:30:36.784Z,11.70
2022-09-01T21:33:04.418Z,14.68
2022-09-01T21:35:31.657Z,16.58
2022-09-01T21:37:58.768Z,12.52
2022-09-01T21:40:26.346Z,13.73
2022-09-01T21:43:25.449Z,16.15
2022-09-01T21:45:52.643Z,10.35
2022-09-01T21:48:20.111Z,13.70
2022-09-01T21:50:47.364Z,11.63
2022-09-01T21:53:15.045Z,13.70
2022-09-01T21:55:42.590Z,11.25
2022-09-01T21:58:10.096Z,10.52
2022-09-01T22:00:39.200Z,11.55
2022-09-01T22:03:07.755Z,11.98
2022-09-01T22:05:40.568Z,8.93
2022-09-01T22:08:13.177Z,8.98
2022-09-01T22:10:50.899Z,11.40
2022-09-01T22:13:23.163Z,9.90
2022-09-01T22:15:52.875Z,10.63
2022-09-01T22:18:21.690Z,11.65
2022-09-01T22:23:17.113Z,11.30
2022-09-01T22:25:47.019Z,9.32
2022-09-01T22:28:14.935Z,9.27
2022-09-01T22:30:47.715Z,7.88
2022-09-01T22:33:16.650Z,9.75
2022-09-01T22:38:14.608Z,13.15
2022-09-01T22:40:54.931Z,12.85
2022-09-01T22:43:23.927Z,11.45
2022-09-01T22:45:52.620Z,12.98
2022-09-01T22:48:23.639Z,12.85
2022-09-01T22:50:52.343Z,13.60
2022-09-01T22:53:21.970Z,10.63
2022-09-01T22:55:51.428Z,13.55
2022-09-01T22:58:19.254Z,12.65
2022-09-01T23:00:51.324Z,11.35
2022-09-01T23:03:20.453Z,10.80
2022-09-01T23:05:49.840Z,11.52
2022-09-01T23:08:17.238Z,9.38
2022-09-01T23:10:44.375Z,15.75
2022-09-01T23:13:11.552Z,14.25
2022-09-01T23:15:38.659Z,11.85
2022-09-01T23:18:05.959Z,8.50
2022-09-01T23:20:33.256Z,9.85
2022-09-01T23:23:00.414Z,8.85
2022-09-01T23:25:27.576Z,9.93
2022-09-01T23:27:54.827Z,8.18
2022-09-01T23:30:22.027Z,11.10
2022-09-01T23:32:49.167Z,9.80
2022-09-01T23:35:16.429Z,13.27
2022-09-01T23:37:43.735Z,10.68
2022-09-01T23:40:11.050Z,9.63
2022-09-01T23:42:38.261Z,14.10
2022-09-01T23:45:05.895Z,14.70
2022-09-01T23:47:33.101Z,15.32
2022-09-01T23:50:01.839Z,13.65
2022-09-01T23:52:28.973Z,12.80
2022-09-01T23:54:56.638Z,13.05
2022-09-01T23:57:23.787Z,11.50
2022-09-01T23:59:51.059Z,12.95
